sensor_id;sensor_type;location;lat;lon;timestamp;temperature;humidity
19972;DHT22;10147;16.402;102.848;2024-02-23T00:01:20;26.40;99.90
19972;DHT22;10147;16.402;102.848;2024-02-23T00:03:50;26.50;99.90
19972;DHT22;10147;16.402;102.848;2024-02-23T00:06:20;26.50;99.90
19972;DHT22;10147;16.402;102.848;2024-02-23T00:08:53;26.40;99.90
19972;DHT22;10147;16.402;102.848;2024-02-23T00:11:24;26.30;99.90
19972;DHT22;10147;16.402;102.848;2024-02-23T00:13:54;26.40;99.90
19972;DHT22;10147;16.402;102.848;2024-02-23T00:16:26;26.50;99.90
19972;DHT22;10147;16.402;102.848;2024-02-23T00:18:56;26.60;99.90
19972;DHT22;10147;16.402;102.848;2024-02-23T00:21:27;26.40;99.90
19972;DHT22;10147;16.402;102.848;2024-02-23T00:23:57;26.60;99.90
19972;DHT22;10147;16.402;102.848;2024-02-23T00:26:27;26.70;99.90
19972;DHT22;10147;16.402;102.848;2024-02-23T00:29:02;26.70;99.90
19972;DHT22;10147;16.402;102.848;2024-02-23T00:31:32;26.60;99.90
19972;DHT22;10147;16.402;102.848;2024-02-23T00:34:02;26.60;99.90
19972;DHT22;10147;16.402;102.848;2024-02-23T00:36:32;26.60;99.90
19972;DHT22;10147;16.402;102.848;2024-02-23T00:39:02;26.80;99.90
19972;DHT22;10147;16.402;102.848;2024-02-23T00:41:32;26.90;99.90
19972;DHT22;10147;16.402;102.848;2024-02-23T00:44:03;27.00;99.90
19972;DHT22;10147;16.402;102.848;2024-02-23T00:46:33;26.90;99.90
19972;DHT22;10147;16.402;102.848;2024-02-23T00:49:04;27.00;99.90
19972;DHT22;10147;16.402;102.848;2024-02-23T00:51:35;27.00;99.90
19972;DHT22;10147;16.402;102.848;2024-02-23T00:54:05;27.10;99.90
19972;DHT22;10147;16.402;102.848;2024-02-23T00:56:37;27.20;99.90
19972;DHT22;10147;16.402;102.848;2024-02-23T00:59:18;27.30;99.90
19972;DHT22;10147;16.402;102.848;2024-02-23T01:01:49;27.40;99.90
19972;DHT22;10147;16.402;102.848;2024-02-23T01:04:19;27.60;99.90
19972;DHT22;10147;16.402;102.848;2024-02-23T01:06:49;27.50;99.90
19972;DHT22;10147;16.402;102.848;2024-02-23T01:09:19;27.60;99.90
19972;DHT22;10147;16.402;102.848;2024-02-23T01:11:51;27.80;99.90
19972;DHT22;10147;16.402;102.848;2024-02-23T01:14:21;27.90;99.90
19972;DHT22;10147;16.402;102.848;2024-02-23T01:16:53;27.80;99.90
19972;DHT22;10147;16.402;102.848;2024-02-23T01:19:23;27.90;99.90
19972;DHT22;10147;16.402;102.848;2024-02-23T01:21:53;28.00;99.90
19972;DHT22;10147;16.402;102.848;2024-02-23T01:24:29;28.10;99.90
19972;DHT22;10147;16.402;102.848;2024-02-23T01:26:59;28.10;99.90
19972;DHT22;10147;16.402;102.848;2024-02-23T01:29:29;28.20;99.90
19972;DHT22;10147;16.402;102.848;2024-02-23T01:31:59;28.30;99.90
19972;DHT22;10147;16.402;102.848;2024-02-23T01:34:29;28.40;99.90
19972;DHT22;10147;16.402;102.848;2024-02-23T01:36:58;28.50;99.90
19972;DHT22;10147;16.402;102.848;2024-02-23T01:39:28;28.60;99.90
19972;DHT22;10147;16.402;102.848;2024-02-23T01:41:58;28.70;99.90
19972;DHT22;10147;16.402;102.848;2024-02-23T01:44:29;28.80;99.90
19972;DHT22;10147;16.402;102.848;2024-02-23T01:46:59;28.80;99.90
19972;DHT22;10147;16.402;102.848;2024-02-23T01:49:29;28.90;99.90
19972;DHT22;10147;16.402;102.848;2024-02-23T01:52:01;29.00;99.90
19972;DHT22;10147;16.402;102.848;2024-02-23T01:54:32;29.10;99.90
19972;DHT22;10147;16.402;102.848;2024-02-23T01:57:03;29.20;99.90
19972;DHT22;10147;16.402;102.848;2024-02-23T01:59:53;29.30;99.90
19972;DHT22;10147;16.402;102.848;2024-02-23T02:02:24;29.40;99.90
19972;DHT22;10147;16.402;102.848;2024-02-23T02:04:54;29.60;99.90
19972;DHT22;10147;16.402;102.848;2024-02-23T02:07:24;29.60;99.90
19972;DHT22;10147;16.402;102.848;2024-02-23T02:09:54;29.70;99.90
19972;DHT22;10147;16.402;102.848;2024-02-23T02:12:28;29.60;99.90
19972;DHT22;10147;16.402;102.848;2024-02-23T02:14:58;29.70;99.90
19972;DHT22;10147;16.402;102.848;2024-02-23T02:17:32;29.90;99.90
19972;DHT22;10147;16.402;102.848;2024-02-23T02:20:06;30.10;99.90
19972;DHT22;10147;16.402;102.848;2024-02-23T02:22:40;30.30;99.90
19972;DHT22;10147;16.402;102.848;2024-02-23T02:25:13;30.30;99.90
19972;DHT22;10147;16.402;102.848;2024-02-23T02:27:44;30.40;99.90
19972;DHT22;10147;16.402;102.848;2024-02-23T02:30:14;30.50;99.90
19972;DHT22;10147;16.402;102.848;2024-02-23T02:32:44;30.50;99.90
19972;DHT22;10147;16.402;102.848;2024-02-23T02:35:14;30.70;99.90
19972;DHT22;10147;16.402;102.848;2024-02-23T02:37:45;30.80;99.90
19972;DHT22;10147;16.402;102.848;2024-02-23T02:40:15;31.00;99.90
19972;DHT22;10147;16.402;102.848;2024-02-23T02:42:46;31.10;99.90
19972;DHT22;10147;16.402;102.848;2024-02-23T02:45:16;31.20;99.90
19972;DHT22;10147;16.402;102.848;2024-02-23T02:47:48;31.30;99.90
19972;DHT22;10147;16.402;102.848;2024-02-23T02:50:17;31.30;99.90
19972;DHT22;10147;16.402;102.848;2024-02-23T02:52:47;31.20;99.90
19972;DHT22;10147;16.402;102.848;2024-02-23T02:55:17;31.40;99.90
19972;DHT22;10147;16.402;102.848;2024-02-23T02:57:47;31.70;99.90
19972;DHT22;10147;16.402;102.848;2024-02-23T03:00:17;32.00;99.90
19972;DHT22;10147;16.402;102.848;2024-02-23T03:02:47;32.20;99.90
19972;DHT22;10147;16.402;102.848;2024-02-23T03:05:17;32.10;99.90
19972;DHT22;10147;16.402;102.848;2024-02-23T03:07:47;32.20;99.90
19972;DHT22;10147;16.402;102.848;2024-02-23T03:10:17;32.30;99.90
19972;DHT22;10147;16.402;102.848;2024-02-23T03:12:47;32.30;99.90
19972;DHT22;10147;16.402;102.848;2024-02-23T03:15:16;32.50;99.90
19972;DHT22;10147;16.402;102.848;2024-02-23T03:17:47;32.60;99.90
19972;DHT22;10147;16.402;102.848;2024-02-23T03:20:17;32.60;99.90
19972;DHT22;10147;16.402;102.848;2024-02-23T03:22:47;32.80;99.90
19972;DHT22;10147;16.402;102.848;2024-02-23T03:25:18;33.00;99.90
19972;DHT22;10147;16.402;102.848;2024-02-23T03:27:49;33.40;99.90
19972;DHT22;10147;16.402;102.848;2024-02-23T03:30:19;33.40;99.90
19972;DHT22;10147;16.402;102.848;2024-02-23T03:32:49;33.40;99.90
19972;DHT22;10147;16.402;102.848;2024-02-23T03:35:19;33.50;99.90
19972;DHT22;10147;16.402;102.848;2024-02-23T03:37:49;33.70;99.90
19972;DHT22;10147;16.402;102.848;2024-02-23T03:40:19;33.70;99.90
19972;DHT22;10147;16.402;102.848;2024-02-23T03:42:49;34.00;99.90
19972;DHT22;10147;16.402;102.848;2024-02-23T03:45:18;34.30;99.90
19972;DHT22;10147;16.402;102.848;2024-02-23T03:47:48;34.20;99.90
19972;DHT22;10147;16.402;102.848;2024-02-23T03:50:18;34.20;99.90
19972;DHT22;10147;16.402;102.848;2024-02-23T03:52:48;34.10;99.90
19972;DHT22;10147;16.402;102.848;2024-02-23T03:55:18;34.30;99.90
19972;DHT22;10147;16.402;102.848;2024-02-23T03:57:48;34.40;99.90
19972;DHT22;10147;16.402;102.848;2024-02-23T04:00:18;34.40;99.90
19972;DHT22;10147;16.402;102.848;2024-02-23T04:02:50;34.40;99.90
19972;DHT22;10147;16.402;102.848;2024-02-23T04:05:22;34.60;99.90
19972;DHT22;10147;16.402;102.848;2024-02-23T04:07:52;34.70;99.90
19972;DHT22;10147;16.402;102.848;2024-02-23T04:10:22;34.70;99.90
19972;DHT22;10147;16.402;102.848;2024-02-23T04:12:52;34.90;99.90
19972;DHT22;10147;16.402;102.848;2024-02-23T04:15:23;34.80;99.90
19972;DHT22;10147;16.402;102.848;2024-02-23T04:17:54;35.00;99.90
19972;DHT22;10147;16.402;102.848;2024-02-23T04:20:24;35.10;99.90
19972;DHT22;10147;16.402;102.848;2024-02-23T04:22:54;34.90;99.90
19972;DHT22;10147;16.402;102.848;2024-02-23T04:25:24;35.00;99.90
19972;DHT22;10147;16.402;102.848;2024-02-23T04:27:55;34.90;99.90
19972;DHT22;10147;16.402;102.848;2024-02-23T04:30:25;35.10;99.90
19972;DHT22;10147;16.402;102.848;2024-02-23T04:32:55;35.30;99.90
19972;DHT22;10147;16.402;102.848;2024-02-23T04:35:25;35.40;99.90
19972;DHT22;10147;16.402;102.848;2024-02-23T04:37:58;35.40;99.90
19972;DHT22;10147;16.402;102.848;2024-02-23T04:40:28;35.60;99.90
19972;DHT22;10147;16.402;102.848;2024-02-23T04:42:58;35.80;99.90
19972;DHT22;10147;16.402;102.848;2024-02-23T04:45:28;35.60;99.90
19972;DHT22;10147;16.402;102.848;2024-02-23T04:47:58;35.50;99.90
19972;DHT22;10147;16.402;102.848;2024-02-23T04:50:28;35.50;99.90
19972;DHT22;10147;16.402;102.848;2024-02-23T04:52:58;35.60;99.90
19972;DHT22;10147;16.402;102.848;2024-02-23T04:55:28;35.70;99.90
19972;DHT22;10147;16.402;102.848;2024-02-23T04:57:58;35.60;99.90
19972;DHT22;10147;16.402;102.848;2024-02-23T05:00:28;35.90;99.90
19972;DHT22;10147;16.402;102.848;2024-02-23T05:03:06;36.20;99.90
19972;DHT22;10147;16.402;102.848;2024-02-23T05:05:40;36.30;99.90
19972;DHT22;10147;16.402;102.848;2024-02-23T05:08:09;36.40;99.90
19972;DHT22;10147;16.402;102.848;2024-02-23T05:10:40;36.40;99.90
19972;DHT22;10147;16.402;102.848;2024-02-23T05:13:13;36.30;99.90
19972;DHT22;10147;16.402;102.848;2024-02-23T05:15:44;36.40;99.90
19972;DHT22;10147;16.402;102.848;2024-02-23T05:18:15;36.70;99.90
19972;DHT22;10147;16.402;102.848;2024-02-23T05:20:45;36.90;99.90
19972;DHT22;10147;16.402;102.848;2024-02-23T05:23:15;37.00;99.90
19972;DHT22;10147;16.402;102.848;2024-02-23T05:25:45;37.20;99.90
19972;DHT22;10147;16.402;102.848;2024-02-23T05:28:15;37.10;99.90
19972;DHT22;10147;16.402;102.848;2024-02-23T05:30:45;36.90;99.90
19972;DHT22;10147;16.402;102.848;2024-02-23T05:33:15;36.70;99.90
19972;DHT22;10147;16.402;102.848;2024-02-23T05:35:45;36.40;99.90
19972;DHT22;10147;16.402;102.848;2024-02-23T05:38:18;36.20;99.90
19972;DHT22;10147;16.402;102.848;2024-02-23T05:40:49;36.50;99.90
19972;DHT22;10147;16.402;102.848;2024-02-23T05:43:19;36.80;99.90
19972;DHT22;10147;16.402;102.848;2024-02-23T05:45:49;37.10;99.90
19972;DHT22;10147;16.402;102.848;2024-02-23T05:48:19;37.40;99.90
19972;DHT22;10147;16.402;102.848;2024-02-23T05:50:50;37.60;99.90
19972;DHT22;10147;16.402;102.848;2024-02-23T05:53:19;37.70;99.90
19972;DHT22;10147;16.402;102.848;2024-02-23T05:55:50;37.60;99.90
19972;DHT22;10147;16.402;102.848;2024-02-23T05:58:20;37.80;99.90
19972;DHT22;10147;16.402;102.848;2024-02-23T06:00:54;37.90;99.90
19972;DHT22;10147;16.402;102.848;2024-02-23T06:03:24;38.00;99.90
19972;DHT22;10147;16.402;102.848;2024-02-23T06:05:54;37.70;99.90
19972;DHT22;10147;16.402;102.848;2024-02-23T06:08:24;37.80;99.40
19972;DHT22;10147;16.402;102.848;2024-02-23T06:10:57;37.90;99.90
19972;DHT22;10147;16.402;102.848;2024-02-23T06:13:33;38.20;99.90
19972;DHT22;10147;16.402;102.848;2024-02-23T06:16:04;38.20;97.20
19972;DHT22;10147;16.402;102.848;2024-02-23T06:18:38;38.40;98.40
19972;DHT22;10147;16.402;102.848;2024-02-23T06:21:15;38.50;98.30
19972;DHT22;10147;16.402;102.848;2024-02-23T06:23:47;38.40;97.70
19972;DHT22;10147;16.402;102.848;2024-02-23T06:26:17;38.20;96.50
19972;DHT22;10147;16.402;102.848;2024-02-23T06:28:51;38.00;96.40
19972;DHT22;10147;16.402;102.848;2024-02-23T06:31:21;37.70;96.10
19972;DHT22;10147;16.402;102.848;2024-02-23T06:33:51;37.90;96.50
19972;DHT22;10147;16.402;102.848;2024-02-23T06:36:22;38.30;95.80
19972;DHT22;10147;16.402;102.848;2024-02-23T06:38:52;38.40;94.90
19972;DHT22;10147;16.402;102.848;2024-02-23T06:41:21;38.50;95.20
19972;DHT22;10147;16.402;102.848;2024-02-23T06:43:52;38.70;95.40
19972;DHT22;10147;16.402;102.848;2024-02-23T06:46:23;38.90;94.40
19972;DHT22;10147;16.402;102.848;2024-02-23T06:48:52;38.90;94.00
19972;DHT22;10147;16.402;102.848;2024-02-23T06:51:23;38.60;93.80
19972;DHT22;10147;16.402;102.848;2024-02-23T06:53:53;38.50;92.10
19972;DHT22;10147;16.402;102.848;2024-02-23T06:56:23;38.00;93.20
19972;DHT22;10147;16.402;102.848;2024-02-23T06:58:53;38.20;92.90
19972;DHT22;10147;16.402;102.848;2024-02-23T07:01:23;37.90;92.40
19972;DHT22;10147;16.402;102.848;2024-02-23T07:03:53;38.50;93.30
19972;DHT22;10147;16.402;102.848;2024-02-23T07:06:23;39.00;92.60
19972;DHT22;10147;16.402;102.848;2024-02-23T07:08:53;39.00;89.80
19972;DHT22;10147;16.402;102.848;2024-02-23T07:11:24;39.00;89.00
19972;DHT22;10147;16.402;102.848;2024-02-23T07:13:54;38.70;89.90
19972;DHT22;10147;16.402;102.848;2024-02-23T07:16:24;38.70;88.80
19972;DHT22;10147;16.402;102.848;2024-02-23T07:18:55;39.00;87.80
19972;DHT22;10147;16.402;102.848;2024-02-23T07:21:26;39.10;89.40
19972;DHT22;10147;16.402;102.848;2024-02-23T07:23:56;39.00;91.20
19972;DHT22;10147;16.402;102.848;2024-02-23T07:26:27;38.70;92.90
19972;DHT22;10147;16.402;102.848;2024-02-23T07:28:58;38.40;93.70
19972;DHT22;10147;16.402;102.848;2024-02-23T07:31:28;37.90;94.60
19972;DHT22;10147;16.402;102.848;2024-02-23T07:33:59;37.80;95.30
19972;DHT22;10147;16.402;102.848;2024-02-23T07:36:29;37.70;97.00
19972;DHT22;10147;16.402;102.848;2024-02-23T07:38:59;37.60;98.50
19972;DHT22;10147;16.402;102.848;2024-02-23T07:41:29;37.60;99.00
19972;DHT22;10147;16.402;102.848;2024-02-23T07:43:59;37.50;99.90
19972;DHT22;10147;16.402;102.848;2024-02-23T07:46:29;37.80;99.70
19972;DHT22;10147;16.402;102.848;2024-02-23T07:48:59;38.30;99.90
19972;DHT22;10147;16.402;102.848;2024-02-23T07:51:29;38.20;98.70
19972;DHT22;10147;16.402;102.848;2024-02-23T07:53:59;38.30;99.40
19972;DHT22;10147;16.402;102.848;2024-02-23T07:56:29;38.00;99.70
19972;DHT22;10147;16.402;102.848;2024-02-23T07:59:00;37.70;99.90
19972;DHT22;10147;16.402;102.848;2024-02-23T08:01:32;37.60;99.90
19972;DHT22;10147;16.402;102.848;2024-02-23T08:04:03;37.40;99.90
19972;DHT22;10147;16.402;102.848;2024-02-23T08:06:34;37.40;99.90
19972;DHT22;10147;16.402;102.848;2024-02-23T08:09:04;37.20;99.90
19972;DHT22;10147;16.402;102.848;2024-02-23T08:11:34;37.10;99.90
19972;DHT22;10147;16.402;102.848;2024-02-23T08:14:04;37.10;99.90
19972;DHT22;10147;16.402;102.848;2024-02-23T08:16:34;37.10;99.90
19972;DHT22;10147;16.402;102.848;2024-02-23T08:19:06;37.00;99.90
19972;DHT22;10147;16.402;102.848;2024-02-23T08:21:36;37.20;99.90
19972;DHT22;10147;16.402;102.848;2024-02-23T08:24:06;37.30;99.90
19972;DHT22;10147;16.402;102.848;2024-02-23T08:26:36;37.30;99.90
19972;DHT22;10147;16.402;102.848;2024-02-23T08:29:09;37.20;99.90
19972;DHT22;10147;16.402;102.848;2024-02-23T08:31:39;37.10;99.80
19972;DHT22;10147;16.402;102.848;2024-02-23T08:34:09;37.20;99.80
19972;DHT22;10147;16.402;102.848;2024-02-23T08:36:39;37.40;99.20
19972;DHT22;10147;16.402;102.848;2024-02-23T08:39:09;37.60;99.40
19972;DHT22;10147;16.402;102.848;2024-02-23T08:41:39;37.70;98.00
19972;DHT22;10147;16.402;102.848;2024-02-23T08:44:09;37.80;95.70
19972;DHT22;10147;16.402;102.848;2024-02-23T08:46:39;37.70;95.20
19972;DHT22;10147;16.402;102.848;2024-02-23T08:49:09;37.90;95.40
19972;DHT22;10147;16.402;102.848;2024-02-23T08:51:39;37.80;95.20
19972;DHT22;10147;16.402;102.848;2024-02-23T08:54:10;37.70;94.90
19972;DHT22;10147;16.402;102.848;2024-02-23T08:56:40;37.60;95.80
19972;DHT22;10147;16.402;102.848;2024-02-23T08:59:12;37.60;96.60
19972;DHT22;10147;16.402;102.848;2024-02-23T09:01:42;37.60;96.10
19972;DHT22;10147;16.402;102.848;2024-02-23T09:04:14;37.60;96.30
19972;DHT22;10147;16.402;102.848;2024-02-23T09:06:43;37.70;97.00
19972;DHT22;10147;16.402;102.848;2024-02-23T09:09:14;37.70;96.50
19972;DHT22;10147;16.402;102.848;2024-02-23T09:11:44;37.60;95.90
19972;DHT22;10147;16.402;102.848;2024-02-23T09:14:14;37.50;95.20
19972;DHT22;10147;16.402;102.848;2024-02-23T09:16:45;37.60;96.70
19972;DHT22;10147;16.402;102.848;2024-02-23T09:19:19;37.60;97.30
19972;DHT22;10147;16.402;102.848;2024-02-23T09:21:50;37.70;97.60
19972;DHT22;10147;16.402;102.848;2024-02-23T09:24:21;37.60;97.60
19972;DHT22;10147;16.402;102.848;2024-02-23T09:26:50;37.50;97.10
19972;DHT22;10147;16.402;102.848;2024-02-23T09:29:22;37.60;97.40
19972;DHT22;10147;16.402;102.848;2024-02-23T09:31:53;37.60;97.80
19972;DHT22;10147;16.402;102.848;2024-02-23T09:34:23;37.50;98.10
19972;DHT22;10147;16.402;102.848;2024-02-23T09:36:54;37.50;98.00
19972;DHT22;10147;16.402;102.848;2024-02-23T09:39:24;37.50;98.10
19972;DHT22;10147;16.402;102.848;2024-02-23T09:41:58;37.40;98.50
19972;DHT22;10147;16.402;102.848;2024-02-23T09:44:32;37.30;98.70
19972;DHT22;10147;16.402;102.848;2024-02-23T09:47:06;37.30;98.20
19972;DHT22;10147;16.402;102.848;2024-02-23T09:49:41;37.00;98.20
19972;DHT22;10147;16.402;102.848;2024-02-23T09:52:11;36.90;98.30
19972;DHT22;10147;16.402;102.848;2024-02-23T09:54:43;36.90;99.00
19972;DHT22;10147;16.402;102.848;2024-02-23T09:57:15;36.90;99.20
19972;DHT22;10147;16.402;102.848;2024-02-23T09:59:48;36.80;99.30
19972;DHT22;10147;16.402;102.848;2024-02-23T10:02:19;36.80;99.60
19972;DHT22;10147;16.402;102.848;2024-02-23T10:04:51;36.70;99.90
19972;DHT22;10147;16.402;102.848;2024-02-23T10:07:25;36.80;99.90
19972;DHT22;10147;16.402;102.848;2024-02-23T10:09:56;36.70;99.90
19972;DHT22;10147;16.402;102.848;2024-02-23T10:12:27;36.60;99.90
19972;DHT22;10147;16.402;102.848;2024-02-23T10:14:58;36.60;99.90
19972;DHT22;10147;16.402;102.848;2024-02-23T10:17:30;36.60;99.90
19972;DHT22;10147;16.402;102.848;2024-02-23T10:20:07;36.50;99.90
19972;DHT22;10147;16.402;102.848;2024-02-23T10:22:37;36.40;99.90
19972;DHT22;10147;16.402;102.848;2024-02-23T10:25:07;36.40;99.90
19972;DHT22;10147;16.402;102.848;2024-02-23T10:27:38;36.20;99.90
19972;DHT22;10147;16.402;102.848;2024-02-23T10:30:10;36.20;99.90
19972;DHT22;10147;16.402;102.848;2024-02-23T10:32:41;36.20;99.90
19972;DHT22;10147;16.402;102.848;2024-02-23T10:35:16;36.20;99.90
19972;DHT22;10147;16.402;102.848;2024-02-23T10:37:49;36.10;99.90
19972;DHT22;10147;16.402;102.848;2024-02-23T10:40:22;36.10;99.90
19972;DHT22;10147;16.402;102.848;2024-02-23T10:42:57;36.00;99.90
19972;DHT22;10147;16.402;102.848;2024-02-23T10:45:29;35.90;99.90
19972;DHT22;10147;16.402;102.848;2024-02-23T10:48:01;35.90;99.90
19972;DHT22;10147;16.402;102.848;2024-02-23T10:50:32;35.80;99.90
19972;DHT22;10147;16.402;102.848;2024-02-23T10:53:04;35.70;99.90
19972;DHT22;10147;16.402;102.848;2024-02-23T10:55:37;35.70;99.90
19972;DHT22;10147;16.402;102.848;2024-02-23T10:58:08;35.70;99.90
19972;DHT22;10147;16.402;102.848;2024-02-23T11:00:41;35.60;99.90
19972;DHT22;10147;16.402;102.848;2024-02-23T11:03:15;35.50;99.90
19972;DHT22;10147;16.402;102.848;2024-02-23T11:05:49;35.40;99.90
19972;DHT22;10147;16.402;102.848;2024-02-23T11:08:20;35.40;99.90
19972;DHT22;10147;16.402;102.848;2024-02-23T11:10:51;35.40;99.90
19972;DHT22;10147;16.402;102.848;2024-02-23T11:13:44;35.40;99.90
19972;DHT22;10147;16.402;102.848;2024-02-23T11:16:22;35.30;99.90
19972;DHT22;10147;16.402;102.848;2024-02-23T11:19:04;35.30;99.90
19972;DHT22;10147;16.402;102.848;2024-02-23T11:21:37;35.20;99.90
19972;DHT22;10147;16.402;102.848;2024-02-23T11:24:07;35.10;99.90
19972;DHT22;10147;16.402;102.848;2024-02-23T11:26:37;35.10;99.90
19972;DHT22;10147;16.402;102.848;2024-02-23T11:29:12;35.00;99.90
19972;DHT22;10147;16.402;102.848;2024-02-23T11:31:48;34.90;99.90
19972;DHT22;10147;16.402;102.848;2024-02-23T11:34:22;35.00;99.90
19972;DHT22;10147;16.402;102.848;2024-02-23T11:36:56;34.90;99.90
19972;DHT22;10147;16.402;102.848;2024-02-23T11:39:29;34.90;99.90
19972;DHT22;10147;16.402;102.848;2024-02-23T11:42:00;34.90;99.90
19972;DHT22;10147;16.402;102.848;2024-02-23T11:44:32;34.90;99.90
19972;DHT22;10147;16.402;102.848;2024-02-23T11:47:05;34.80;99.90
19972;DHT22;10147;16.402;102.848;2024-02-23T11:49:36;34.80;99.90
19972;DHT22;10147;16.402;102.848;2024-02-23T11:52:07;34.70;99.90
19972;DHT22;10147;16.402;102.848;2024-02-23T11:54:37;34.70;99.90
19972;DHT22;10147;16.402;102.848;2024-02-23T11:57:08;34.60;99.90
19972;DHT22;10147;16.402;102.848;2024-02-23T11:59:39;34.50;99.90
19972;DHT22;10147;16.402;102.848;2024-02-23T12:02:12;34.50;99.90
19972;DHT22;10147;16.402;102.848;2024-02-23T12:04:43;34.40;99.90
19972;DHT22;10147;16.402;102.848;2024-02-23T12:07:13;34.50;99.90
19972;DHT22;10147;16.402;102.848;2024-02-23T12:09:45;34.40;99.90
19972;DHT22;10147;16.402;102.848;2024-02-23T12:12:15;34.40;99.90
19972;DHT22;10147;16.402;102.848;2024-02-23T12:14:45;34.40;99.90
19972;DHT22;10147;16.402;102.848;2024-02-23T12:17:17;34.30;99.90
19972;DHT22;10147;16.402;102.848;2024-02-23T12:19:47;34.20;99.90
19972;DHT22;10147;16.402;102.848;2024-02-23T12:22:25;34.10;99.90
19972;DHT22;10147;16.402;102.848;2024-02-23T12:24:59;34.20;99.90
19972;DHT22;10147;16.402;102.848;2024-02-23T12:27:29;34.10;99.90
19972;DHT22;10147;16.402;102.848;2024-02-23T12:30:02;34.00;99.90
19972;DHT22;10147;16.402;102.848;2024-02-23T12:32:33;34.00;99.90
19972;DHT22;10147;16.402;102.848;2024-02-23T12:35:05;34.00;99.90
19972;DHT22;10147;16.402;102.848;2024-02-23T12:37:36;33.90;99.90
19972;DHT22;10147;16.402;102.848;2024-02-23T12:40:09;33.90;99.90
19972;DHT22;10147;16.402;102.848;2024-02-23T12:42:39;33.80;99.90
19972;DHT22;10147;16.402;102.848;2024-02-23T12:45:11;33.80;99.90
19972;DHT22;10147;16.402;102.848;2024-02-23T12:47:43;33.70;99.90
19972;DHT22;10147;16.402;102.848;2024-02-23T12:50:13;33.60;99.90
19972;DHT22;10147;16.402;102.848;2024-02-23T12:52:44;33.50;99.90
19972;DHT22;10147;16.402;102.848;2024-02-23T12:55:16;33.50;99.90
19972;DHT22;10147;16.402;102.848;2024-02-23T12:57:45;33.50;99.90
19972;DHT22;10147;16.402;102.848;2024-02-23T13:00:16;33.50;99.90
19972;DHT22;10147;16.402;102.848;2024-02-23T13:02:47;33.50;99.90
19972;DHT22;10147;16.402;102.848;2024-02-23T13:05:17;33.50;99.90
19972;DHT22;10147;16.402;102.848;2024-02-23T13:07:47;33.50;99.90
19972;DHT22;10147;16.402;102.848;2024-02-23T13:10:18;33.40;99.90
19972;DHT22;10147;16.402;102.848;2024-02-23T13:12:48;33.30;99.90
19972;DHT22;10147;16.402;102.848;2024-02-23T13:15:19;33.30;99.90
19972;DHT22;10147;16.402;102.848;2024-02-23T13:17:54;33.20;99.90
19972;DHT22;10147;16.402;102.848;2024-02-23T13:20:24;33.10;99.90
19972;DHT22;10147;16.402;102.848;2024-02-23T13:22:56;33.10;99.90
19972;DHT22;10147;16.402;102.848;2024-02-23T13:25:28;33.00;99.90
19972;DHT22;10147;16.402;102.848;2024-02-23T13:27:59;33.00;99.90
19972;DHT22;10147;16.402;102.848;2024-02-23T13:30:34;33.00;99.90
19972;DHT22;10147;16.402;102.848;2024-02-23T13:33:07;33.00;99.90
19972;DHT22;10147;16.402;102.848;2024-02-23T13:35:38;33.00;99.90
19972;DHT22;10147;16.402;102.848;2024-02-23T13:38:11;32.90;99.90
19972;DHT22;10147;16.402;102.848;2024-02-23T13:40:41;32.90;99.90
19972;DHT22;10147;16.402;102.848;2024-02-23T13:43:12;32.90;99.90
19972;DHT22;10147;16.402;102.848;2024-02-23T13:45:52;32.90;99.90
19972;DHT22;10147;16.402;102.848;2024-02-23T13:48:26;32.80;99.90
19972;DHT22;10147;16.402;102.848;2024-02-23T13:50:56;32.80;99.90
19972;DHT22;10147;16.402;102.848;2024-02-23T13:53:26;32.70;99.90
19972;DHT22;10147;16.402;102.848;2024-02-23T13:55:56;32.70;99.90
19972;DHT22;10147;16.402;102.848;2024-02-23T13:58:27;32.70;99.90
19972;DHT22;10147;16.402;102.848;2024-02-23T14:00:57;32.70;99.90
19972;DHT22;10147;16.402;102.848;2024-02-23T14:03:28;32.70;99.90
19972;DHT22;10147;16.402;102.848;2024-02-23T14:05:59;32.50;99.90
19972;DHT22;10147;16.402;102.848;2024-02-23T14:08:31;32.50;99.90
19972;DHT22;10147;16.402;102.848;2024-02-23T14:11:04;32.50;99.90
19972;DHT22;10147;16.402;102.848;2024-02-23T14:13:35;32.40;99.90
19972;DHT22;10147;16.402;102.848;2024-02-23T14:16:09;32.40;99.90
19972;DHT22;10147;16.402;102.848;2024-02-23T14:18:39;32.30;99.90
19972;DHT22;10147;16.402;102.848;2024-02-23T14:21:12;32.30;99.90
19972;DHT22;10147;16.402;102.848;2024-02-23T14:23:45;32.20;99.90
19972;DHT22;10147;16.402;102.848;2024-02-23T14:26:16;32.20;99.90
19972;DHT22;10147;16.402;102.848;2024-02-23T14:28:47;32.00;99.90
19972;DHT22;10147;16.402;102.848;2024-02-23T14:31:19;32.00;99.90
19972;DHT22;10147;16.402;102.848;2024-02-23T14:33:50;32.00;99.90
19972;DHT22;10147;16.402;102.848;2024-02-23T14:36:20;32.10;99.90
19972;DHT22;10147;16.402;102.848;2024-02-23T14:38:51;32.10;99.90
19972;DHT22;10147;16.402;102.848;2024-02-23T14:41:22;32.10;99.90
19972;DHT22;10147;16.402;102.848;2024-02-23T14:43:52;32.10;99.90
19972;DHT22;10147;16.402;102.848;2024-02-23T14:46:25;32.10;99.90
19972;DHT22;10147;16.402;102.848;2024-02-23T14:48:55;32.00;99.90
19972;DHT22;10147;16.402;102.848;2024-02-23T14:51:25;32.00;99.90
19972;DHT22;10147;16.402;102.848;2024-02-23T14:53:55;32.00;99.90
19972;DHT22;10147;16.402;102.848;2024-02-23T14:56:29;31.90;99.90
19972;DHT22;10147;16.402;102.848;2024-02-23T14:58:59;31.90;99.90
19972;DHT22;10147;16.402;102.848;2024-02-23T15:01:32;31.90;99.90
19972;DHT22;10147;16.402;102.848;2024-02-23T15:04:05;31.90;99.90
19972;DHT22;10147;16.402;102.848;2024-02-23T15:06:35;31.80;99.90
19972;DHT22;10147;16.402;102.848;2024-02-23T15:09:08;31.70;99.90
19972;DHT22;10147;16.402;102.848;2024-02-23T15:11:38;31.60;99.90
19972;DHT22;10147;16.402;102.848;2024-02-23T15:14:09;31.60;99.90
19972;DHT22;10147;16.402;102.848;2024-02-23T15:16:39;31.70;99.90
19972;DHT22;10147;16.402;102.848;2024-02-23T15:19:09;31.70;99.90
19972;DHT22;10147;16.402;102.848;2024-02-23T15:21:43;31.70;99.90
19972;DHT22;10147;16.402;102.848;2024-02-23T15:24:16;31.70;99.90
19972;DHT22;10147;16.402;102.848;2024-02-23T15:26:47;31.70;99.90